Airfield :
LOGIN :

Register | Disclaimer

   EN    FR    IT 

 










Legend :    VFR   Marginal VFR   IFR   Intensive IFR   Very Intensive IFR
Visi :
Ceiling :
>= 8 km
>= 3000ft
5 to 8 km
1000 to 3000 ft
1500m to 5 km
500 to 1000 ft
800 to 1500m
200 to 500 ft
< 800m
< 200 ft
Symbols :   Thunderstorms  Fog  Heavy snow  Heavy precipitations  Wind > 20 kt
SIGMETs :     Misc.  Thunderstorms  Icing  Turbulence  Mountain Waves  Volcanic Ashes






- Airport Elevation : 160 ft
- IATA code : FMO


EDDG - Münster Osnabrück Int.

CURRENT METAR :
  • 260020Z 21010KT 180V240 9999 -RA BKN010 02/01 Q1007 TEMPO 4500 SHSNRA BKN007TCU

EXPIRED METARs :
  • 252350Z 21009KT 170V230 8000 -RA BKN007 02/01 Q1007 TEMPO 4500 SHSNRA BKN011TCU
  • 252320Z 21008KT 170V230 6000 BKN011 01/01 Q1007 TEMPO 4500 SHSNRA BKN007TCU
  • 252250Z 22010KT 6000 -SN BKN007 01/01 Q1007 BECMG BKN011
  • 252220Z 19008KT 170V230 7000 -SN BKN005 01/00 Q1007 BECMG BKN011

TAF TAF EDDG
Valid from the 26 at 00:00 until the 27 at 00:00 UTC


252300Z 2600/2624 22010KT 8000 BKN007
TEMPO 2600/2605 4500 SHRASN SCT007 BKN015TCU
PROB30
TEMPO 2601/2605 27015G25KT
BECMG 2604/2607 29008KT BKN010
PROB30
TEMPO 2606/2608 4000 BR
BECMG 2609/2612 SCT020
BECMG 2615/2618 22005KT



MET'MAP, your aeronautical weather chart ! - Copyright ORBIFLY December 2007 - Disclaimer

ORBIFLY MET'MAP TEAM :

Programming & Development : Alexandra Zaïnal
Concept & original design : Baudouin d'Aumeries
Assistance for programming : Marc-Olivier Méhu
Technical & hardware support : Manuel Goepfert

Contact : metmap@orbifly.com




SOURCES & CREDITS :

   NOAA